シャージャラル国際空港(ダッカ)の過去48時間の天気

シャージャラル国際空港(ダッカ) (Kurmitola, Dia)

現在時刻: 10/1 20:52 +06 (10/1 14:52 UTC) 以下の時間は現地時間です。

過去48時間のMETAR気象情報
時間 風向 風速(m/s) 視程 気温(℃) 湿度(%) 気圧(hPa) 天気現象
1 20:30 静穏 0 3500m 29 74 1004 煙霧
1 20:00 静穏 0 3500m 29 74 1004 煙霧
1 19:30 静穏 0 3500m 29 74 1003 煙霧
1 19:00 静穏 0 3500m 29 74 1003 煙霧
1 18:30 静穏 0 3500m 29 79 1002 煙霧
1 18:00 静穏 0 3500m 29 79 1002 煙霧
1 17:30 静穏 0 3500m 29 79 1001 雷雨
1 17:00 静穏 0 3500m 29 79 1001 雷雨
1 16:30 4 3500m 30 75 1001 雷雨
1 16:00 西南西 3 4000m 31 66 1001 煙霧
1 15:30 西北西 3 4000m 31 66 1001 煙霧
1 15:00 西 4 4000m 31 70 1001 煙霧
1 14:30 西 3 4000m 31 70 1002 煙霧
1 14:00 西 3 4000m 31 70 1002 煙霧
1 13:30 南西 5 4000m 31 70 1002 煙霧
1 13:00 南西 2 4000m 30 70 1003
1 12:30 4 4000m 30 70 1003 煙霧
1 12:00 西南西 5 4000m 30 70 1004 煙霧
1 11:30 南西 3 4000m 30 70 1005 煙霧
1 11:00 西 4 4000m 30 70 1005 煙霧
1 10:30 南西 2 4000m 31 70 1005 煙霧
1 10:00 静穏 0 4000m 30 70 1005 煙霧
1 09:30 静穏 0 4000m 29 74 1005 煙霧
1 09:00 静穏 0 4000m 29 74 1005 煙霧
1 08:30 静穏 0 4000m 28 79 1005 煙霧
1 08:00 静穏 0 3500m 28 79 1005 煙霧
1 07:30 静穏 0 3500m 28 84 1004 煙霧
1 07:00 静穏 0 3500m 28 84 1004 煙霧
1 06:30 静穏 0 3500m 28 84 1003 煙霧
1 06:00 静穏 0 3500m 28 84 1003 煙霧
1 05:30 静穏 0 3500m 29 79 1003 煙霧
1 05:00 静穏 0 3500m 29 79 1003 煙霧
1 04:30 静穏 0 3500m 29 79 1003 煙霧
1 04:00 静穏 0 3500m 29 79 1002 煙霧
1 03:30 静穏 0 3500m 30 79 1002 煙霧
1 03:00 静穏 0 3500m 30 79 1002 煙霧
1 02:30 静穏 0 3500m 30 79 1003 煙霧
1 02:00 静穏 0 3500m 30 79 1003 煙霧
1 01:30 2 3500m 30 75 1004 煙霧
1 01:00 静穏 0 3500m 30 75 1004 煙霧
1 00:30 2 3500m 30 75 1004 煙霧
1 00:00 3 3500m 30 75 1004 煙霧
30 23:30 2 3500m 30 75 1004 煙霧
30 23:00 静穏 0 3500m 30 75 1004 煙霧
30 22:30 静穏 0 3500m 30 75 1004 煙霧
30 22:00 静穏 0 3500m 30 75 1004 煙霧
30 21:30 南南東 2 3500m 30 75 1004 煙霧
30 21:00 2 3500m 30 75 1004 煙霧
30 20:30 静穏 0 3500m 30 75 1004 煙霧
30 20:00 3 3500m 30 75 1004 煙霧
30 19:30 南南東 3 3500m 30 75 1003 煙霧
30 19:00 静穏 0 3500m 30 75 1002 煙霧
30 18:30 静穏 0 3500m 30 75 1002 煙霧
30 18:00 静穏 0 3500m 30 75 1001 煙霧
30 17:30 静穏 0 3500m 30 75 1001 煙霧
30 17:00 静穏 0 3500m 30 75 1001 煙霧
30 16:30 静穏 0 3500m 30 75 1001 煙霧
30 16:00 南西 2 3500m 30 75 1001
30 15:30 南西 4 3500m 30 75 1001
30 15:00 南南西 5 3500m 32 67 1001 煙霧
30 14:30 静穏 0 4000m 33 63 1001 煙霧
30 14:00 東南東 3 4000m 34 56 1003 煙霧
30 13:30 南南東 3 4000m 34 56 1003 煙霧
30 13:00 2 4000m 34 56 1003 煙霧
30 12:30 2 4000m 34 56 1003 煙霧
30 12:00 南南東 3 4000m 34 56 1004 煙霧
30 11:30 北東 3 4000m 33 59 1004 煙霧
30 11:00 2 4000m 33 63 1005 煙霧
30 10:30 2 4000m 32 63 1005 煙霧
30 10:00 東南東 2 4000m 31 66 1006 煙霧
30 09:30 静穏 0 3500m 31 66 1006 煙霧
30 09:00 静穏 0 3500m 31 66 1006 煙霧
30 08:30 静穏 0 3500m 30 70 1006 煙霧
30 08:00 静穏 0 3500m 30 70 1005 煙霧
30 07:30 静穏 0 3500m 29 74 1005 煙霧
30 07:00 静穏 0 3500m 29 74 1005 煙霧
30 06:30 静穏 0 3500m 28 79 1004 煙霧
30 06:00 静穏 0 3500m 28 79 1004 煙霧
30 05:30 静穏 0 3500m 28 79 1003 煙霧
30 05:00 静穏 0 3500m 28 79 1003 煙霧
30 04:30 静穏 0 3500m 28 79 1003 煙霧
30 04:00 静穏 0 3500m 28 79 1003 煙霧
30 03:30 静穏 0 3500m 28 79 1003 煙霧
30 03:00 静穏 0 3500m 28 79 1003 煙霧
30 02:30 静穏 0 3500m 29 74 1003 煙霧
30 02:00 静穏 0 3500m 29 74 1003 煙霧
30 01:30 静穏 0 4000m 29 74 1003 煙霧
30 01:00 静穏 0 4000m 29 74 1003 煙霧
30 00:30 静穏 0 4000m 29 74 1004 煙霧
30 00:00 静穏 0 4000m 29 74 1004 煙霧
29 23:30 静穏 0 4000m 29 74 1004 煙霧
29 23:00 静穏 0 4000m 29 74 1004 煙霧
29 22:30 静穏 0 4000m 29 74 1005 煙霧
29 22:00 静穏 0 4000m 29 70 1005 煙霧
29 21:30 静穏 0 4000m 29 70 1005 煙霧
29 21:00 静穏 0 4000m 30 70 1005 煙霧
VGHS 011430Z 00000KT 3500 HZ SCT012 BKN100 29/24 Q1004 NOSIG
VGHS 011400Z 00000KT 3500 HZ SCT015 BKN100 29/24 Q1004 NOSIG
VGHS 011330Z 00000KT 3500 HZ SCT015 BKN100 29/24 Q1003 NOSIG
VGHS 011300Z 00000KT 3500 HZ SCT015 BKN100 29/24 Q1003 NOSIG
VGHS 011230Z 00000KT 3500 HZ SCT015 BKN100 29/25 Q1002 NOSIG
VGHS 011200Z 00000KT 3500 HZ SCT015 BKN100 29/25 Q1002 NOSIG
VGHS 011130Z 00000KT 3500 TSRA SCT012 FEW025CB BKN100 29/25 Q1001 TEMPO TSRA
VGHS 011100Z 00000KT 3500 TSRA SCT012 FEW025CB BKN100 29/25 Q1001 TEMPO TSRA
VGHS 011030Z 18008KT 3500 TSRA SCT012 FEW025CB BKN100 30/25 Q1001 TEMPO TSRA
VGHS 011000Z 25006KT 4000 HZ SCT012 FEW025CB BKN100 31/24 Q1001 TEMPO TSRA
VGHS 010930Z 30006KT 4000 HZ SCT012 BKN100 31/24 Q1001 NOSIG
VGHS 010900Z 28008KT 4000 HZ SCT012 BKN100 31/25 Q1001 NOSIG
VGHS 010830Z 28005KT 4000 HZ SCT012 BKN100 31/25 Q1002 NOSIG
VGHS 010800Z 26006KT 4000 HZ SCT012 BKN100 31/25 Q1002 NOSIG
VGHS 010730Z 23010KT 4000 HZ SCT012 BKN100 31/25 Q1002 NOSIG
VGHS 010700Z 23004KT 4000 TS BKN010 FEW025CB BKN100 30/24 Q1003 TEMPO TSRA
VGHS 010630Z 19008KT 4000 HZ BKN010 FEW025CB BKN100 30/24 Q1003 TEMPO TSRA
VGHS 010600Z 24010KT 4000 HZ BKN010 FEW025CB BKN100 30/24 Q1004 TEMPO TSRA
VGHS 010530Z 23005KT 4000 HZ SCT012 BKN100 30/24 Q1005 TEMPO RA
VGHS 010500Z 26008KT 4000 HZ SCT012 BKN100 30/24 Q1005 NOSIG
VGHS 010430Z 23004KT 4000 HZ FEW015 SCT100 31/25 Q1005 NOSIG
VGHS 010400Z 00000KT 4000 HZ FEW015 SCT100 30/24 Q1005 NOSIG
VGHS 010330Z 00000KT 4000 HZ FEW015 SCT100 29/24 Q1005 NOSIG
VGHS 010300Z 00000KT 4000 HZ FEW015 SCT100 29/24 Q1005 NOSIG
VGHS 010230Z 00000KT 4000 HZ FEW015 SCT100 28/24 Q1005 NOSIG
VGHS 010200Z 00000KT 3500 HZ SCT015 BKN100 28/24 Q1005 NOSIG
VGHS 010130Z 00000KT 3500 HZ SCT015 BKN100 28/25 Q1004 NOSIG
VGHS 010100Z 00000KT 3500 HZ SCT012 BKN100 28/25 Q1004 NOSIG
VGHS 010030Z 00000KT 3500 HZ SCT012 BKN100 28/25 Q1003 NOSIG
VGHS 010000Z 00000KT 3500 HZ SCT012 BKN100 28/25 Q1003 NOSIG
VGHS 302330Z 00000KT 3500 HZ FEW100 29/25 Q1003 NOSIG
VGHS 302300Z 00000KT 3500 HZ FEW015 SCT100 29/25 Q1003 NOSIG
VGHS 302230Z 00000KT 3500 HZ FEW015 SCT100 29/25 Q1003 NOSIG
VGHS 302200Z 00000KT 3500 HZ FEW015 SCT100 29/25 Q1002 NOSIG
VGHS 302130Z 00000KT 3500 HZ SCT015 BKN100 30/26 Q1002 NOSIG
VGHS 302100Z 00000KT 3500 HZ SCT015 SCT100 30/26 Q1002 NOSIG
VGHS 302030Z 00000KT 3500 HZ SCT015 BKN100 30/26 Q1003 NOSIG
VGHS 302000Z 00000KT 3500 HZ SCT015 BKN100 30/26 Q1003 NOSIG
VGHS 301930Z 17003KT 3500 HZ SCT015 BKN100 30/25 Q1004 NOSIG
VGHS 301900Z 00000KT 3500 HZ SCT015 BKN100 30/25 Q1004 NOSIG
VGHS 301830Z 17003KT 3500 HZ SCT015 BKN100 30/25 Q1004 NOSIG
VGHS 301800Z 18006KT 3500 HZ SCT015 BKN100 30/25 Q1004 NOSIG
VGHS 301730Z 17003KT 3500 HZ SCT015 BKN100 30/25 Q1004 NOSIG
VGHS 301700Z 00000KT 3500 HZ SCT015 BKN100 30/25 Q1004 NOSIG
VGHS 301630Z 00000KT 3500 HZ SCT015 BKN100 30/25 Q1004 NOSIG
VGHS 301600Z 00000KT 3500 HZ SCT015 BKN100 30/25 Q1004 NOSIG
VGHS 301530Z 15004KT 3500 HZ SCT015 BKN100 30/25 Q1004 NOSIG
VGHS 301500Z 17003KT 3500 HZ SCT015 BKN100 30/25 Q1004 NOSIG
VGHS 301430Z 00000KT 3500 HZ SCT015 BKN100 30/25 Q1004 NOSIG
VGHS 301400Z 17006KT 3500 HZ SCT015 BKN100 30/25 Q1004 NOSIG
VGHS 301330Z 16005KT 3500 HZ SCT012 BKN100 30/25 Q1003 NOSIG
VGHS 301300Z 00000KT 3500 HZ SCT012 BKN100 30/25 Q1002 NOSIG
VGHS 301230Z 00000KT 3500 HZ SCT012 BKN100 30/25 Q1002 NOSIG
VGHS 301200Z 00000KT 3500 HZ SCT012 BKN100 30/25 Q1001 NOSIG
VGHS 301130Z 00000KT 3500 HZ SCT012 BKN100 30/25 Q1001 NOSIG
VGHS 301100Z 00000KT 3500 HZ SCT012 BKN100 30/25 Q1001 NOSIG
VGHS 301030Z 00000KT 3500 HZ SCT012 BKN100 30/25 Q1001 NOSIG
VGHS 301000Z 23004KT 3500 TS BKN010 FEW025CB BKN100 30/25 Q1001 TEMPO TSRA
VGHS 300930Z 23008KT 3500 TS BKN010 FEW025CB BKN100 30/25 Q1001 TEMPO TSRA
VGHS 300900Z 21010KT 3500 HZ BKN010 FEW025CB BKN100 32/25 Q1001 TEMPO TSRA
VGHS 300830Z 00000KT 4000 HZ BKN010 FEW025CB BKN100 33/25 Q1001 TEMPO TSRA
VGHS 300800Z 12006KT 4000 HZ SCT012 FEW025CB BKN100 34/24 Q1003 TEMPO TSRA
VGHS 300730Z 16005KT 4000 HZ SCT012 FEW025CB BKN100 34/24 Q1003 TEMPO TSRA
VGHS 300700Z 09004KT 4000 HZ SCT012 BKN100 34/24 Q1003 NOSIG
VGHS 300630Z 10004KT 4000 HZ SCT012 BKN100 34/24 Q1003 NOSIG
VGHS 300600Z 15005KT 4000 HZ SCT012 BKN100 34/24 Q1004 NOSIG
VGHS 300530Z 04005KT 4000 HZ SCT012 BKN100 33/24 Q1004 NOSIG
VGHS 300500Z 08003KT 4000 HZ SCT012 BKN100 33/25 Q1005 NOSIG
VGHS 300430Z 10004KT 4000 HZ SCT012 BKN100 32/24 Q1005 NOSIG
VGHS 300400Z 12004KT 4000 HZ SCT012 BKN100 31/24 Q1006 NOSIG
VGHS 300330Z 00000KT 3500 HZ SCT015 BKN100 31/24 Q1006 NOSIG
VGHS 300300Z 00000KT 3500 HZ NSC 31/24 Q1006 NOSIG
VGHS 300230Z 00000KT 3500 HZ NSC 30/24 Q1006 NOSIG
VGHS 300200Z 00000KT 3500 HZ NSC 30/24 Q1005 NOSIG
VGHS 300130Z 00000KT 3500 HZ NSC 29/24 Q1005 NOSIG
VGHS 300100Z 00000KT 3500 HZ SCT100 29/24 Q1005 NOSIG
VGHS 300030Z 00000KT 3500 HZ SCT100 28/24 Q1004 NOSIG
VGHS 300000Z 00000KT 3500 HZ SCT100 28/24 Q1004 NOSIG
VGHS 292330Z 00000KT 3500 HZ SCT100 28/24 Q1003 NOSIG
VGHS 292300Z 00000KT 3500 HZ SCT100 28/24 Q1003 NOSIG
VGHS 292230Z 00000KT 3500 HZ SCT100 28/24 Q1003 NOSIG
VGHS 292200Z 00000KT 3500 HZ SCT100 28/24 Q1003 NOSIG
VGHS 292130Z 00000KT 3500 HZ SCT100 28/24 Q1003 NOSIG
VGHS 292100Z 00000KT 3500 HZ SCT100 28/24 Q1003 NOSIG
VGHS 292030Z 00000KT 3500 HZ SCT100 29/24 Q1003 NOSIG
VGHS 292000Z 00000KT 3500 HZ SCT100 29/24 Q1003 NOSIG
VGHS 291930Z 00000KT 4000 HZ SCT100 29/24 Q1003 NOSIG
VGHS 291900Z 00000KT 4000 HZ SCT100 29/24 Q1003 NOSIG
VGHS 291830Z 00000KT 4000 HZ SCT100 29/24 Q1004 NOSIG
VGHS 291800Z 00000KT 4000 HZ SCT100 29/24 Q1004 NOSIG
VGHS 291730Z 00000KT 4000 HZ SCT100 29/24 Q1004 NOSIG
VGHS 291700Z 00000KT 4000 HZ SCT100 29/24 Q1004 NOSIG
VGHS 291630Z 00000KT 4000 HZ FEW015 SCT100 29/24 Q1005 NOSIG
VGHS 291600Z 00000KT 4000 HZ FEW015 SCT100 29/23 Q1005 NOSIG
VGHS 291530Z 00000KT 4000 HZ FEW015 SCT100 29/23 Q1005 NOSIG
VGHS 291500Z 00000KT 4000 HZ FEW015 SCT100 30/24 Q1005 NOSIG